Time;durP1;ratioP1;P1;durP2;ratioP2;P2;SDS_P1;SDS_P2;PMS_P1;PMS_P2;Temp;Humidity;BMP_temperature;BMP_pressure;BME280_temperature;BME280_humidity;BME280_pressure;Samples;Min_cycle;Max_cycle;Signal;HPM_P1;HPM_P2
2024/02/19 00:01:32;;;;;;;;;;;;;;;0.94;100.00;98325.43;110376;1241;69225;-61
2024/02/19 00:04:03;;;;;;;;;;;;;;;0.96;100.00;98321.09;110390;1242;59733;-61
2024/02/19 00:06:34;;;;;;;;;;;;;;;0.96;100.00;98320.05;110366;1240;59657;-61
2024/02/19 00:09:03;;;;;;;;;;;;;;;0.94;100.00;98317.71;110399;1241;71525;-61
2024/02/19 00:11:32;;;;;;;;;;;;;;;0.92;100.00;98313.60;110492;1241;69093;-61
2024/02/19 00:14:01;;;;;;;;;;;;;;;0.92;100.00;98311.03;110502;1242;69114;-61
2024/02/19 00:16:30;;;;;;;;;;;;;;;0.93;100.00;98307.08;110442;1242;59746;-61
2024/02/19 00:18:58;;;;;;;;;;;;;;;0.93;100.00;98302.61;110504;1241;59680;-61
2024/02/19 00:21:27;;;;;;;;;;;;;;;0.93;100.00;98298.85;110483;1241;72400;-61
2024/02/19 00:23:56;;;;;;;;;;;;;;;0.92;100.00;98299.37;110424;1249;69227;-61
2024/02/19 00:26:24;;;;;;;;;;;;;;;0.90;100.00;98300.95;110414;1241;69238;-61
2024/02/19 00:28:53;;;;;;;;;;;;;;;0.88;100.00;98295.67;110390;1242;60117;-61
2024/02/19 00:31:22;;;;;;;;;;;;;;;0.89;100.00;98291.89;110358;1242;59665;-61
2024/02/19 00:33:51;;;;;;;;;;;;;;;0.92;100.00;98289.25;110358;1242;71353;-61
2024/02/19 00:36:20;;;;;;;;;;;;;;;0.95;100.00;98289.35;110371;1242;69168;-61
2024/02/19 00:38:48;;;;;;;;;;;;;;;0.98;100.00;98290.50;110343;1242;69548;-61
2024/02/19 00:41:19;;;;;;;;;;;;;;;0.99;100.00;98288.58;110406;1242;59747;-61
2024/02/19 00:43:48;;;;;;;;;;;;;;;1.00;100.00;98283.56;110399;1241;59671;-61
2024/02/19 00:46:18;;;;;;;;;;;;;;;1.01;100.00;98285.79;110392;1242;71160;-61
2024/02/19 00:48:47;;;;;;;;;;;;;;;1.03;100.00;98285.25;110365;1242;68898;-61
2024/02/19 00:51:15;;;;;;;;;;;;;;;1.06;100.00;98287.94;110192;1240;70230;-61
2024/02/19 00:53:44;;;;;;;;;;;;;;;1.08;100.00;98291.00;110381;1241;59736;-61
2024/02/19 00:56:13;;;;;;;;;;;;;;;1.07;100.00;98289.11;110336;1242;59674;-61
2024/02/19 00:58:42;;;;;;;;;;;;;;;1.09;100.00;98286.14;110209;1247;70609;-61
2024/02/19 01:01:10;;;;;;;;;;;;;;;1.11;100.00;98282.68;110388;1241;69304;-61
2024/02/19 01:03:43;;;;;;;;;;;;;;;1.12;100.00;98285.24;110305;1241;68807;-61
2024/02/19 01:06:12;;;;;;;;;;;;;;;1.12;100.00;98286.44;110365;1241;59709;-61
2024/02/19 01:08:42;;;;;;;;;;;;;;;1.15;100.00;98281.06;110351;1242;59673;-61
2024/02/19 01:11:11;;;;;;;;;;;;;;;1.17;100.00;98282.73;110389;1239;70605;-61
2024/02/19 01:13:39;;;;;;;;;;;;;;;1.19;100.00;98278.21;110349;1242;68597;-62
2024/02/19 01:16:08;;;;;;;;;;;;;;;1.18;100.00;98277.20;110444;1242;69502;-62
2024/02/19 01:18:37;;;;;;;;;;;;;;;1.19;100.00;98279.93;110342;1243;60094;-62
2024/02/19 01:21:06;;;;;;;;;;;;;;;1.22;100.00;98277.80;110367;1241;59742;-62
2024/02/19 01:23:36;;;;;;;;;;;;;;;1.23;100.00;98273.83;110451;1241;71522;-62
2024/02/19 01:26:05;;;;;;;;;;;;;;;1.25;100.00;98273.11;110445;1242;68229;-62
2024/02/19 01:28:34;;;;;;;;;;;;;;;1.26;100.00;98273.59;110390;1242;69216;-62
2024/02/19 01:31:03;;;;;;;;;;;;;;;1.26;100.00;98271.70;110497;1242;59719;-62
2024/02/19 01:33:32;;;;;;;;;;;;;;;1.25;100.00;98260.58;110362;1241;59750;-61
2024/02/19 01:36:00;;;;;;;;;;;;;;;1.23;100.00;98255.64;110342;1242;71155;-61
2024/02/19 01:38:29;;;;;;;;;;;;;;;1.21;100.00;98258.44;110381;1241;68339;-62
2024/02/19 01:40:58;;;;;;;;;;;;;;;1.19;100.00;98258.12;110316;1241;69108;-61
2024/02/19 01:43:27;;;;;;;;;;;;;;;1.18;100.00;98252.13;110330;1241;59732;-61
2024/02/19 01:45:55;;;;;;;;;;;;;;;1.18;100.00;98246.30;110379;1242;59688;-61
2024/02/19 01:48:25;;;;;;;;;;;;;;;1.19;100.00;98237.34;110322;1241;71966;-61
2024/02/19 01:50:53;;;;;;;;;;;;;;;1.19;100.00;98236.81;110484;1243;69501;-61
2024/02/19 01:53:23;;;;;;;;;;;;;;;1.22;100.00;98236.25;110521;1242;69853;-61
2024/02/19 01:55:52;;;;;;;;;;;;;;;1.24;100.00;98236.71;110440;1246;59696;-61
2024/02/19 01:58:21;;;;;;;;;;;;;;;1.26;100.00;98237.02;110399;1240;59698;-62
2024/02/19 02:00:50;;;;;;;;;;;;;;;1.30;100.00;98241.92;110318;1241;71950;-61
2024/02/19 02:03:21;;;;;;;;;;;;;;;1.28;100.00;98247.10;110397;1242;69730;-62
2024/02/19 02:05:50;;;;;;;;;;;;;;;1.27;100.00;98242.83;110348;1242;69758;-61
2024/02/19 02:08:19;;;;;;;;;;;;;;;1.25;100.00;98236.52;110350;1242;59663;-61
2024/02/19 02:10:48;;;;;;;;;;;;;;;1.25;100.00;98238.07;110346;1242;59670;-62
2024/02/19 02:13:18;;;;;;;;;;;;;;;1.19;100.00;98234.77;110427;1241;71169;-61
2024/02/19 02:15:47;;;;;;;;;;;;;;;1.16;100.00;98231.23;110466;1242;69864;-59
2024/02/19 02:18:16;;;;;;;;;;;;;;;1.14;100.00;98230.43;110478;1242;70326;-62
2024/02/19 02:20:46;;;;;;;;;;;;;;;1.13;100.00;98231.46;110459;1242;59667;-60
2024/02/19 02:23:15;;;;;;;;;;;;;;;1.12;100.00;98230.64;110352;1242;59675;-60
2024/02/19 02:25:43;;;;;;;;;;;;;;;1.12;100.00;98228.94;110491;1242;72363;-60
2024/02/19 02:28:12;;;;;;;;;;;;;;;1.11;100.00;98228.93;110440;1239;68128;-60
2024/02/19 02:30:41;;;;;;;;;;;;;;;1.07;100.00;98227.13;110382;1242;69331;-60
2024/02/19 02:33:10;;;;;;;;;;;;;;;1.04;100.00;98230.30;110363;1242;59693;-60
2024/02/19 02:35:38;;;;;;;;;;;;;;;1.04;100.00;98227.02;110337;1242;59620;-62
2024/02/19 02:38:07;;;;;;;;;;;;;;;1.02;100.00;98223.46;110374;1244;71146;-60
2024/02/19 02:40:36;;;;;;;;;;;;;;;1.00;100.00;98213.71;110356;1241;69047;-60
2024/02/19 02:43:05;;;;;;;;;;;;;;;1.03;100.00;98215.39;110394;1241;69149;-60
2024/02/19 02:45:34;;;;;;;;;;;;;;;1.07;100.00;98218.22;110350;1242;59695;-61
2024/02/19 02:48:03;;;;;;;;;;;;;;;1.09;100.00;98216.97;110314;1242;59686;-61
2024/02/19 02:50:32;;;;;;;;;;;;;;;1.12;100.00;98213.64;110341;1241;71923;-61
2024/02/19 02:53:00;;;;;;;;;;;;;;;1.14;100.00;98211.17;110333;1242;69204;-61
2024/02/19 02:55:29;;;;;;;;;;;;;;;1.16;100.00;98212.69;110300;1242;69242;-61
2024/02/19 02:57:58;;;;;;;;;;;;;;;1.16;100.00;98212.17;110339;1240;59767;-61
2024/02/19 03:00:26;;;;;;;;;;;;;;;1.16;100.00;98211.13;110357;1242;59691;-61
2024/02/19 03:02:55;;;;;;;;;;;;;;;1.16;100.00;98211.31;110338;1242;71289;-61
2024/02/19 03:05:24;;;;;;;;;;;;;;;1.18;100.00;98205.42;110373;1242;69826;-61
2024/02/19 03:07:52;;;;;;;;;;;;;;;1.19;100.00;98201.27;110299;1242;69943;-61
2024/02/19 03:10:21;;;;;;;;;;;;;;;1.20;100.00;98205.72;110326;1243;59759;-61
2024/02/19 03:12:50;;;;;;;;;;;;;;;1.20;100.00;98201.77;110359;1242;59665;-61
2024/02/19 03:15:19;;;;;;;;;;;;;;;1.22;100.00;98200.18;110362;1241;71146;-61
2024/02/19 03:17:47;;;;;;;;;;;;;;;1.22;100.00;98200.36;110352;1242;69218;-61
2024/02/19 03:20:18;;;;;;;;;;;;;;;1.21;100.00;98199.87;110351;1242;69082;-61
2024/02/19 03:22:47;;;;;;;;;;;;;;;1.23;100.00;98195.36;110340;1242;59713;-61
2024/02/19 03:25:16;;;;;;;;;;;;;;;1.24;100.00;98190.34;110239;1242;59630;-61
2024/02/19 03:27:46;;;;;;;;;;;;;;;1.24;100.00;98190.18;110342;1242;72047;-61
2024/02/19 03:30:15;;;;;;;;;;;;;;;1.23;100.00;98190.20;110413;1241;68779;-61
2024/02/19 03:32:43;;;;;;;;;;;;;;;1.23;100.00;98196.39;110409;1241;69290;-61
2024/02/19 03:35:13;;;;;;;;;;;;;;;1.25;100.00;98192.05;110317;1243;59645;-61
2024/02/19 03:37:41;;;;;;;;;;;;;;;1.24;100.00;98190.00;110372;1241;59739;-61
2024/02/19 03:40:10;;;;;;;;;;;;;;;1.24;100.00;98186.23;110330;1242;71776;-60
2024/02/19 03:42:39;;;;;;;;;;;;;;;1.25;100.00;98183.81;110336;1243;69717;-61
2024/02/19 03:45:08;;;;;;;;;;;;;;;1.25;100.00;98182.27;110428;1242;69191;-61
2024/02/19 03:47:37;;;;;;;;;;;;;;;1.26;100.00;98183.79;110335;1241;59673;-61
2024/02/19 03:50:05;;;;;;;;;;;;;;;1.28;100.00;98188.70;110354;1242;60064;-61
2024/02/19 03:52:34;;;;;;;;;;;;;;;1.29;100.00;98186.11;110322;1243;72024;-61
2024/02/19 03:55:03;;;;;;;;;;;;;;;1.29;100.00;98184.91;110389;1242;69715;-61
2024/02/19 03:57:32;;;;;;;;;;;;;;;1.25;100.00;98186.89;110323;1242;70188;-61
2024/02/19 04:00:03;;;;;;;;;;;;;;;1.24;100.00;98187.77;110446;1241;59744;-60
2024/02/19 04:02:32;;;;;;;;;;;;;;;1.24;100.00;98188.45;110338;1240;59695;-61
2024/02/19 04:05:00;;;;;;;;;;;;;;;1.25;100.00;98183.65;110322;1241;70933;-61
2024/02/19 04:07:29;;;;;;;;;;;;;;;1.25;100.00;98186.39;110430;1241;69233;-61
2024/02/19 04:09:59;;;;;;;;;;;;;;;1.26;100.00;98184.83;110310;1242;69090;-61
2024/02/19 04:12:28;;;;;;;;;;;;;;;1.26;100.00;98183.61;110377;1242;59654;-61
2024/02/19 04:14:56;;;;;;;;;;;;;;;1.25;100.00;98182.78;110376;1241;59681;-61
2024/02/19 04:17:26;;;;;;;;;;;;;;;1.24;100.00;98181.42;110368;1241;71409;-61
2024/02/19 04:19:56;;;;;;;;;;;;;;;1.24;100.00;98177.64;110352;1242;69708;-61
2024/02/19 04:22:25;;;;;;;;;;;;;;;1.22;100.00;98174.08;110345;1241;69818;-61
2024/02/19 04:24:54;;;;;;;;;;;;;;;1.23;100.00;98177.49;110361;1244;59686;-61
2024/02/19 04:27:23;;;;;;;;;;;;;;;1.22;100.00;98168.43;110365;1240;59671;-61
2024/02/19 04:29:52;;;;;;;;;;;;;;;1.17;100.00;98168.19;110360;1242;71441;-60
2024/02/19 04:32:20;;;;;;;;;;;;;;;1.13;100.00;98169.67;110411;1242;68799;-61
2024/02/19 04:34:49;;;;;;;;;;;;;;;1.12;100.00;98171.24;110407;1242;69690;-61
2024/02/19 04:37:19;;;;;;;;;;;;;;;1.11;100.00;98173.83;110393;1241;59721;-61
2024/02/19 04:39:48;;;;;;;;;;;;;;;1.11;100.00;98180.36;110410;1241;59671;-61
2024/02/19 04:42:17;;;;;;;;;;;;;;;1.10;100.00;98175.92;110381;1239;71343;-61
2024/02/19 04:44:45;;;;;;;;;;;;;;;1.07;100.00;98177.18;110428;1241;68750;-61
2024/02/19 04:47:14;;;;;;;;;;;;;;;1.06;100.00;98178.05;110456;1244;69711;-61
2024/02/19 04:49:43;;;;;;;;;;;;;;;1.04;100.00;98174.16;110428;1241;59731;-62
2024/02/19 04:52:12;;;;;;;;;;;;;;;1.02;100.00;98169.73;110400;1241;59601;-61
2024/02/19 04:54:43;;;;;;;;;;;;;;;1.01;100.00;98172.48;110437;1242;71944;-62
2024/02/19 04:57:11;;;;;;;;;;;;;;;1.03;100.00;98166.29;110504;1242;69813;-62
2024/02/19 04:59:40;;;;;;;;;;;;;;;1.01;100.00;98160.31;110518;1242;68790;-61
2024/02/19 05:02:09;;;;;;;;;;;;;;;0.99;100.00;98158.80;110492;1242;59733;-61
2024/02/19 05:04:38;;;;;;;;;;;;;;;1.01;100.00;98162.38;110609;1242;59680;-61
2024/02/19 05:07:06;;;;;;;;;;;;;;;1.03;100.00;98164.05;110498;1241;71354;-62
2024/02/19 05:09:36;;;;;;;;;;;;;;;1.03;100.00;98159.42;110416;1242;69772;-61
2024/02/19 05:12:05;;;;;;;;;;;;;;;1.01;100.00;98162.18;110460;1242;69225;-62
2024/02/19 05:14:34;;;;;;;;;;;;;;;1.03;100.00;98165.27;110373;1249;59676;-62
2024/02/19 05:17:03;;;;;;;;;;;;;;;1.07;100.00;98163.81;110479;1242;59656;-61
2024/02/19 05:19:32;;;;;;;;;;;;;;;1.05;100.00;98162.11;110396;1241;71152;-62
2024/02/19 05:22:01;;;;;;;;;;;;;;;1.01;100.00;98158.95;110448;1242;69191;-62
2024/02/19 05:24:30;;;;;;;;;;;;;;;1.00;100.00;98162.21;110490;1245;69199;-62
2024/02/19 05:26:59;;;;;;;;;;;;;;;1.00;100.00;98166.18;110545;1239;59738;-62
2024/02/19 05:29:28;;;;;;;;;;;;;;;1.00;100.00;98166.33;110509;1241;59683;-62
2024/02/19 05:31:56;;;;;;;;;;;;;;;1.04;100.00;98168.67;110405;1241;71788;-62
2024/02/19 05:34:25;;;;;;;;;;;;;;;1.06;100.00;98166.40;110540;1238;69127;-61
2024/02/19 05:36:54;;;;;;;;;;;;;;;1.08;100.00;98169.11;110552;1240;69850;-61
2024/02/19 05:39:22;;;;;;;;;;;;;;;1.08;100.00;98172.35;110457;1244;59747;-62
2024/02/19 05:41:52;;;;;;;;;;;;;;;1.12;100.00;98167.45;110405;1240;59714;-61
2024/02/19 05:44:21;;;;;;;;;;;;;;;1.13;100.00;98167.27;110523;1243;70365;-61
2024/02/19 05:46:49;;;;;;;;;;;;;;;1.13;100.00;98165.02;110635;1240;69190;-61
2024/02/19 05:49:18;;;;;;;;;;;;;;;1.16;100.00;98168.58;110592;1241;68125;-62
2024/02/19 05:51:47;;;;;;;;;;;;;;;1.15;100.00;98168.23;110452;1247;59598;-61
2024/02/19 05:54:16;;;;;;;;;;;;;;;1.14;100.00;98167.04;110471;1241;59697;-62
2024/02/19 05:56:45;;;;;;;;;;;;;;;1.15;100.00;98170.81;110410;1242;71879;-61
2024/02/19 05:59:13;;;;;;;;;;;;;;;1.15;100.00;98174.06;110439;1242;69588;-61
2024/02/19 06:01:42;;;;;;;;;;;;;;;1.14;100.00;98171.86;110464;1241;70066;-61
2024/02/19 06:04:11;;;;;;;;;;;;;;;1.12;100.00;98172.28;110548;1239;59785;-61
2024/02/19 06:06:40;;;;;;;;;;;;;;;1.08;100.00;98172.52;110563;1242;59631;-61
2024/02/19 06:09:09;;;;;;;;;;;;;;;1.08;100.00;98176.30;110385;1242;71973;-62
2024/02/19 06:11:41;;;;;;;;;;;;;;;1.09;100.00;98177.30;110429;1240;68733;-62
2024/02/19 06:14:11;;;;;;;;;;;;;;;1.11;100.00;98181.55;110431;1242;69157;-61
2024/02/19 06:16:40;;;;;;;;;;;;;;;1.12;100.00;98180.67;109992;1242;637151;-62
2024/02/19 06:19:08;;;;;;;;;;;;;;;1.15;100.00;98182.66;110323;1249;59675;-62
2024/02/19 06:21:38;;;;;;;;;;;;;;;1.21;100.00;98187.49;110396;1242;71131;-62
2024/02/19 06:24:07;;;;;;;;;;;;;;;1.25;100.00;98189.30;110383;1242;68160;-63
2024/02/19 06:26:36;;;;;;;;;;;;;;;1.29;100.00;98186.80;110476;1244;68257;-62
2024/02/19 06:29:05;;;;;;;;;;;;;;;1.33;100.00;98188.09;110378;1242;59730;-62
2024/02/19 06:31:44;;;;;;;;;;;;;;;1.37;100.00;98188.85;110377;1241;59669;-62
2024/02/19 06:34:13;;;;;;;;;;;;;;;1.42;100.00;98192.70;110456;1242;72030;-63
2024/02/19 06:36:41;;;;;;;;;;;;;;;1.47;100.00;98191.70;110530;1242;69717;-62
2024/02/19 06:39:10;;;;;;;;;;;;;;;1.53;100.00;98191.73;110390;1241;69277;-63
2024/02/19 06:41:39;;;;;;;;;;;;;;;1.54;100.00;98192.73;110363;1244;60032;-60
2024/02/19 06:44:07;;;;;;;;;;;;;;;1.60;100.00;98193.29;110383;1241;59628;-61
2024/02/19 06:46:36;;;;;;;;;;;;;;;1.65;100.00;98188.69;110424;1238;71317;-62
2024/02/19 06:49:05;;;;;;;;;;;;;;;1.70;100.00;98187.72;110489;1241;70145;-62
2024/02/19 06:51:34;;;;;;;;;;;;;;;1.74;100.00;98187.27;110532;1244;68379;-62
2024/02/19 06:54:03;;;;;;;;;;;;;;;1.75;100.00;98189.28;110476;1242;59740;-61
2024/02/19 06:56:31;;;;;;;;;;;;;;;1.79;100.00;98191.06;110592;1240;59654;-61
2024/02/19 06:59:03;;;;;;;;;;;;;;;1.85;100.00;98190.59;110485;1242;72147;-61
2024/02/19 07:01:41;;;;;;;;;;;;;;;1.92;100.00;98191.62;110461;1240;69820;-61
2024/02/19 07:04:11;;;;;;;;;;;;;;;1.97;100.00;98195.78;110453;1241;69244;-61
2024/02/19 07:06:40;;;;;;;;;;;;;;;2.00;100.00;98194.17;110488;1242;59698;-62
2024/02/19 07:09:09;;;;;;;;;;;;;;;2.01;100.00;98192.40;110446;1242;59686;-61
2024/02/19 07:11:38;;;;;;;;;;;;;;;2.03;100.00;98195.98;110451;1242;72024;-62
2024/02/19 07:14:07;;;;;;;;;;;;;;;2.03;100.00;98197.88;110460;1242;69681;-62
2024/02/19 07:16:35;;;;;;;;;;;;;;;1.99;100.00;98197.29;110422;1249;69281;-63
2024/02/19 07:19:05;;;;;;;;;;;;;;;2.01;100.00;98199.62;110446;1242;59699;-63
2024/02/19 07:21:35;;;;;;;;;;;;;;;1.97;100.00;98199.58;110449;1240;59692;-61
2024/02/19 07:24:04;;;;;;;;;;;;;;;2.00;100.00;98198.81;110413;1243;70520;-61
2024/02/19 07:26:34;;;;;;;;;;;;;;;2.03;100.00;98199.76;110383;1242;69635;-61
2024/02/19 07:29:03;;;;;;;;;;;;;;;2.07;100.00;98195.20;110365;1241;69317;-61
2024/02/19 07:31:32;;;;;;;;;;;;;;;2.09;100.00;98194.61;110343;1241;59759;-61
2024/02/19 07:34:02;;;;;;;;;;;;;;;2.12;100.00;98197.12;110350;1242;59684;-61
2024/02/19 07:36:31;;;;;;;;;;;;;;;2.18;100.00;98196.95;110367;1242;71744;-61
2024/02/19 07:39:01;;;;;;;;;;;;;;;2.25;100.00;98196.92;110333;1242;68216;-62
2024/02/19 07:41:30;;;;;;;;;;;;;;;2.30;100.00;98193.19;110393;1242;70013;-62
2024/02/19 07:43:58;;;;;;;;;;;;;;;2.35;100.00;98193.23;110341;1240;59746;-62
2024/02/19 07:46:27;;;;;;;;;;;;;;;2.40;100.00;98194.47;110398;1241;59670;-62
2024/02/19 07:48:56;;;;;;;;;;;;;;;2.41;100.00;98192.38;110391;1241;71336;-62
2024/02/19 07:51:25;;;;;;;;;;;;;;;2.45;100.00;98188.45;110281;1249;69750;-62
2024/02/19 07:53:55;;;;;;;;;;;;;;;2.46;100.00;98186.55;110427;1242;69232;-62
2024/02/19 07:56:23;;;;;;;;;;;;;;;2.48;100.00;98189.24;110410;1242;59739;-62
2024/02/19 07:58:52;;;;;;;;;;;;;;;2.57;100.00;98189.35;110402;1241;59712;-62
2024/02/19 08:01:21;;;;;;;;;;;;;;;2.65;100.00;98185.18;110431;1242;71653;-62
2024/02/19 08:03:50;;;;;;;;;;;;;;;2.69;100.00;98185.74;110355;1241;69200;-62
2024/02/19 08:06:19;;;;;;;;;;;;;;;2.65;100.00;98186.71;110360;1241;68512;-62
2024/02/19 08:08:48;;;;;;;;;;;;;;;2.65;100.00;98186.38;110278;1242;59676;-62
2024/02/19 08:11:18;;;;;;;;;;;;;;;2.73;100.00;98183.71;110314;1242;59695;-62
2024/02/19 08:13:47;;;;;;;;;;;;;;;2.77;100.00;98179.11;110263;1244;72024;-62
2024/02/19 08:16:16;;;;;;;;;;;;;;;2.79;100.00;98178.39;110291;1242;69483;-62
2024/02/19 08:18:45;;;;;;;;;;;;;;;2.74;100.00;98182.16;110287;1243;69737;-62
2024/02/19 08:21:14;;;;;;;;;;;;;;;2.69;100.00;98183.48;110278;1239;59689;-62
2024/02/19 08:23:43;;;;;;;;;;;;;;;2.67;100.00;98181.14;110168;1245;59740;-62
2024/02/19 08:26:11;;;;;;;;;;;;;;;2.72;100.00;98177.38;110291;1242;71104;-63
2024/02/19 08:28:41;;;;;;;;;;;;;;;2.75;100.00;98177.63;110260;1242;69174;-62
2024/02/19 08:31:10;;;;;;;;;;;;;;;2.82;100.00;98168.81;110223;1241;69246;-62
2024/02/19 08:33:39;;;;;;;;;;;;;;;2.88;100.00;98167.45;110315;1241;59682;-62
2024/02/19 08:36:08;;;;;;;;;;;;;;;2.96;100.00;98165.81;110295;1243;59678;-62
2024/02/19 08:38:37;;;;;;;;;;;;;;;2.99;100.00;98164.00;110339;1242;71351;-62
2024/02/19 08:41:06;;;;;;;;;;;;;;;2.96;100.00;98163.77;110317;1242;69233;-62
2024/02/19 08:43:34;;;;;;;;;;;;;;;3.11;100.00;98161.42;110236;1239;68659;-62
2024/02/19 08:46:03;;;;;;;;;;;;;;;3.21;100.00;98161.10;110291;1242;59693;-62
2024/02/19 08:48:32;;;;;;;;;;;;;;;3.28;100.00;98161.91;110326;1241;59661;-62
2024/02/19 08:51:01;;;;;;;;;;;;;;;3.19;100.00;98165.63;110327;1242;72100;-62
2024/02/19 08:53:30;;;;;;;;;;;;;;;3.13;100.00;98169.63;110388;1242;69809;-62
2024/02/19 08:55:59;;;;;;;;;;;;;;;3.20;100.00;98165.77;110403;1241;69958;-62
2024/02/19 08:58:30;;;;;;;;;;;;;;;3.30;100.00;98165.27;110341;1247;59764;-62
2024/02/19 09:01:01;;;;;;;;;;;;;;;3.37;100.00;98162.66;110400;1242;59669;-62
2024/02/19 09:03:30;;;;;;;;;;;;;;;3.44;100.00;98161.04;110422;1241;71966;-62
2024/02/19 09:06:00;;;;;;;;;;;;;;;3.56;100.00;98164.96;110387;1241;69806;-62
2024/02/19 09:08:29;;;;;;;;;;;;;;;3.60;100.00;98165.02;110500;1241;69191;-62
2024/02/19 09:10:57;;;;;;;;;;;;;;;3.67;100.00;98166.86;110452;1240;59738;-62
2024/02/19 09:13:26;;;;;;;;;;;;;;;3.71;100.00;98160.00;110424;1240;59599;-62
2024/02/19 09:15:55;;;;;;;;;;;;;;;3.73;100.00;98156.46;110490;1242;72235;-62
2024/02/19 09:18:25;;;;;;;;;;;;;;;3.79;100.00;98152.66;110426;1238;68450;-62
2024/02/19 09:20:54;;;;;;;;;;;;;;;3.86;100.00;98152.77;110392;1241;69202;-60
2024/02/19 09:23:22;;;;;;;;;;;;;;;3.96;100.00;98150.17;110475;1242;59743;-61
2024/02/19 09:25:53;;;;;;;;;;;;;;;4.08;100.00;98150.80;110332;1243;59686;-61
2024/02/19 09:28:22;;;;;;;;;;;;;;;4.22;100.00;98153.77;110592;1239;72304;-61
2024/02/19 09:30:51;;;;;;;;;;;;;;;4.32;100.00;98154.45;110498;1238;69711;-61
2024/02/19 09:33:20;;;;;;;;;;;;;;;4.45;100.00;98153.44;110477;1239;69806;-61
2024/02/19 09:35:49;;;;;;;;;;;;;;;4.56;100.00;98153.55;110386;1240;59735;-61
2024/02/19 09:38:18;;;;;;;;;;;;;;;4.65;100.00;98150.98;110493;1240;59692;-61
2024/02/19 09:40:49;;;;;;;;;;;;;;;4.73;100.00;98149.84;110323;1241;71317;-61
2024/02/19 09:43:20;;;;;;;;;;;;;;;4.82;100.00;98148.45;110160;1244;68073;-61
2024/02/19 09:45:49;;;;;;;;;;;;;;;4.83;100.00;98146.52;110306;1241;69253;-61
2024/02/19 09:48:19;;;;;;;;;;;;;;;4.95;100.00;98145.21;110310;1242;59757;-61
2024/02/19 09:50:49;;;;;;;;;;;;;;;5.11;100.00;98144.39;110312;1241;59696;-61
2024/02/19 09:53:27;;;;;;;;;;;;;;;5.26;100.00;98143.31;110347;1241;72187;-61
2024/02/19 09:55:59;;;;;;;;;;;;;;;5.34;100.00;98143.82;110411;1241;69694;-61
2024/02/19 09:58:28;;;;;;;;;;;;;;;5.43;100.00;98139.15;110377;1240;69262;-61
2024/02/19 10:00:57;;;;;;;;;;;;;;;5.59;100.00;98142.84;110342;1241;59756;-62
2024/02/19 10:03:26;;;;;;;;;;;;;;;5.69;100.00;98144.15;110421;1245;59682;-61
2024/02/19 10:05:55;;;;;;;;;;;;;;;5.62;100.00;98141.83;110496;1241;71856;-62
2024/02/19 10:08:24;;;;;;;;;;;;;;;5.77;100.00;98137.60;110553;1242;69290;-62
2024/02/19 10:10:56;;;;;;;;;;;;;;;5.84;100.00;98131.73;110515;1241;70008;-62
2024/02/19 10:13:26;;;;;;;;;;;;;;;6.01;100.00;98128.29;110382;1241;59681;-62
2024/02/19 10:15:54;;;;;;;;;;;;;;;6.07;100.00;98125.92;110417;1241;59644;-62
2024/02/19 10:18:24;;;;;;;;;;;;;;;5.98;100.00;98123.02;110367;1242;71962;-62
2024/02/19 10:20:53;;;;;;;;;;;;;;;5.94;100.00;98121.85;110398;1242;69287;-61
2024/02/19 10:23:22;;;;;;;;;;;;;;;5.62;100.00;98121.60;110349;1240;69583;-61
2024/02/19 10:25:52;;;;;;;;;;;;;;;5.61;100.00;98113.17;110333;1242;60142;-61
2024/02/19 10:28:22;;;;;;;;;;;;;;;5.64;100.00;98111.48;110372;1241;59669;-61
2024/02/19 10:30:51;;;;;;;;;;;;;;;5.56;100.00;98111.47;110384;1241;72486;-60
2024/02/19 10:33:19;;;;;;;;;;;;;;;5.54;100.00;98113.11;110421;1241;68754;-61
2024/02/19 10:35:49;;;;;;;;;;;;;;;5.61;100.00;98110.91;110383;1241;69818;-61
2024/02/19 10:38:19;;;;;;;;;;;;;;;5.49;100.00;98106.23;110429;1240;59744;-61
2024/02/19 10:40:47;;;;;;;;;;;;;;;5.47;100.00;98101.30;110410;1240;59610;-61
2024/02/19 10:43:17;;;;;;;;;;;;;;;5.62;100.00;98100.84;110344;1242;71746;-60
2024/02/19 10:45:47;;;;;;;;;;;;;;;5.69;100.00;98097.29;110351;1242;69718;-61
2024/02/19 10:48:16;;;;;;;;;;;;;;;5.69;100.00;98095.20;110337;1240;69894;-61
2024/02/19 10:50:49;;;;;;;;;;;;;;;5.74;100.00;98091.70;110330;1238;59756;-61
2024/02/19 10:53:19;;;;;;;;;;;;;;;5.60;100.00;98086.92;110394;1241;59657;-60
2024/02/19 10:55:50;;;;;;;;;;;;;;;5.74;100.00;98084.08;110428;1239;71498;-61
2024/02/19 10:58:26;;;;;;;;;;;;;;;6.48;100.00;98077.91;110423;1240;69075;-61
2024/02/19 11:00:57;;;;;;;;;;;;;;;7.26;100.00;98074.02;110405;1247;69166;-61
2024/02/19 11:03:26;;;;;;;;;;;;;;;8.34;100.00;98071.48;110404;1241;59744;-61
2024/02/19 11:05:59;;;;;;;;;;;;;;;9.33;100.00;98069.87;110398;1245;59684;-62
2024/02/19 11:08:35;;;;;;;;;;;;;;;10.05;100.00;98069.48;110303;1242;72051;-61
2024/02/19 11:11:05;;;;;;;;;;;;;;;10.61;96.33;98059.99;110479;1238;69226;-61
2024/02/19 11:13:37;;;;;;;;;;;;;;;11.60;89.77;98055.81;110514;1238;69788;-62
2024/02/19 11:16:16;;;;;;;;;;;;;;;12.53;88.06;98048.20;110428;1248;59663;-61
2024/02/19 11:18:45;;;;;;;;;;;;;;;12.89;78.37;98040.80;110313;1241;59729;-61
2024/02/19 11:21:18;;;;;;;;;;;;;;;13.03;71.74;98039.77;110376;1242;71816;-61
2024/02/19 11:23:46;;;;;;;;;;;;;;;13.80;72.10;98036.46;110355;1241;69244;-61
2024/02/19 11:26:15;;;;;;;;;;;;;;;14.48;73.85;98029.89;110398;1243;69230;-61
2024/02/19 11:28:44;;;;;;;;;;;;;;;15.06;66.84;98027.48;110311;1247;59735;-61
2024/02/19 11:31:13;;;;;;;;;;;;;;;15.42;65.10;98021.02;110436;1241;59753;-62
2024/02/19 11:33:43;;;;;;;;;;;;;;;15.56;64.45;98017.77;110351;1241;70495;-62
2024/02/19 11:36:12;;;;;;;;;;;;;;;16.04;62.24;98012.80;110414;1240;69399;-62
2024/02/19 11:38:41;;;;;;;;;;;;;;;17.09;64.57;98014.58;110370;1241;69935;-61
2024/02/19 11:41:10;;;;;;;;;;;;;;;16.77;55.51;98009.42;110444;1241;59734;-62
2024/02/19 11:43:39;;;;;;;;;;;;;;;16.90;57.34;98008.15;110558;1238;59670;-61
2024/02/19 11:46:08;;;;;;;;;;;;;;;16.14;55.58;98006.98;110528;1238;71458;-61
2024/02/19 11:48:37;;;;;;;;;;;;;;;16.42;56.75;98000.75;110360;1241;69296;-61
2024/02/19 11:51:06;;;;;;;;;;;;;;;15.77;53.82;97997.30;110328;1241;69938;-61
2024/02/19 11:53:35;;;;;;;;;;;;;;;15.65;56.07;97996.10;110423;1241;59750;-61
2024/02/19 11:56:04;;;;;;;;;;;;;;;16.36;54.89;97988.95;110362;1241;59626;-61
2024/02/19 11:58:33;;;;;;;;;;;;;;;17.03;52.77;97992.70;110382;1241;71995;-60
2024/02/19 12:01:02;;;;;;;;;;;;;;;17.64;50.60;97989.30;110422;1241;69867;-61
2024/02/19 12:03:34;;;;;;;;;;;;;;;17.17;49.60;97986.02;110380;1240;67598;-61
2024/02/19 12:06:03;;;;;;;;;;;;;;;17.12;48.74;97982.91;110382;1238;59674;-60
2024/02/19 12:08:32;;;;;;;;;;;;;;;17.31;50.96;97978.59;110409;1240;59756;-62
2024/02/19 12:11:00;;;;;;;;;;;;;;;18.38;51.39;97969.45;110326;1248;71615;-61
2024/02/19 12:13:29;;;;;;;;;;;;;;;19.08;49.49;97966.55;110338;1242;69388;-63
2024/02/19 12:15:58;;;;;;;;;;;;;;;19.32;45.41;97964.48;110291;1241;69265;-61
2024/02/19 12:18:28;;;;;;;;;;;;;;;18.79;44.14;97963.63;110381;1238;59670;-62
2024/02/19 12:20:59;;;;;;;;;;;;;;;17.69;43.45;97961.64;110417;1238;59689;-60
2024/02/19 12:23:28;;;;;;;;;;;;;;;17.72;47.48;97959.54;110375;1241;71931;-61
2024/02/19 12:25:56;;;;;;;;;;;;;;;18.00;45.89;97955.44;110418;1247;69557;-62
2024/02/19 12:28:25;;;;;;;;;;;;;;;17.25;43.93;97957.23;110453;1241;69862;-61
2024/02/19 12:30:54;;;;;;;;;;;;;;;16.60;44.50;97954.88;110436;1240;59753;-62
2024/02/19 12:33:23;;;;;;;;;;;;;;;15.92;45.67;97949.05;110454;1245;59715;-62
2024/02/19 12:35:53;;;;;;;;;;;;;;;16.24;46.97;97943.80;110437;1242;71303;-62
2024/02/19 12:38:22;;;;;;;;;;;;;;;16.63;46.37;97942.31;110449;1238;69137;-61
2024/02/19 12:40:50;;;;;;;;;;;;;;;16.35;46.03;97938.59;110402;1238;68795;-61
2024/02/19 12:43:19;;;;;;;;;;;;;;;16.28;46.13;97935.00;110388;1241;59735;-61
2024/02/19 12:45:48;;;;;;;;;;;;;;;17.17;45.84;97936.84;110366;1241;59752;-61